Latest Coastal Weather Observations for Roebourne Airport

IDW60701

Issued at 6:25 am WST Wednesday 24 September 2014 (issued every 10 minutes, with the page automatically refreshed every 10 minutes)

About coastal observations | Map of coastal stations | Coastal observations for WA | Marine services | Other Formats
Station Details ID: 004090 Name: ROEBOURNE AERO Lat: -20.76 Lon: 117.16 Height: 10.7 m
Data from the previous 72 hours. | See also: Recent months at Roebourne Airport
Date/Time
WST
Temp

°C
Wind Pressure Rain
since 9am
mm
Weather Cloud Vis
km
Sea
Height
m
Swell
Dir
 
Speed
knots
Gust
knots
hPa Trend Height
m
Period
s
Dir
24/06:00am 19.2 ESE 15 18 1018.9 - 0.0 - - - - - - -
24/05:30am 19.6 ESE 13 16 1018.5 - 0.0 - - - - - - -
24/05:00am 19.2 SE 12 15 1018.3 - 0.0 - - - - - - -
24/04:30am 15.2 SSE 6 8 1018.1 - 0.0 - - - - - - -
24/04:00am 14.5 SSW 8 9 1017.7 - 0.0 - - - - - - -
24/03:30am 15.6 SW 4 6 1017.5 - 0.0 - - - - - - -
24/03:00am 16.0 SW 8 9 1017.4 - 0.0 - - - - - - -
24/02:30am 14.4 SSW 6 7 1017.5 - 0.0 - - - - - - -
24/02:00am 14.0 SSW 2 4 1017.7 - 0.0 - - - - - - -
24/01:30am 17.9 W 7 8 1017.8 - 0.0 - - - - - - -
24/01:00am 18.2 W 8 9 1017.9 - 0.0 - - - - - - -
24/12:30am 18.0 WSW 4 5 1018.1 - 0.0 - - - - - - -
24/12:00am 18.6 W 5 5 1018.3 - 0.0 - - - - - - -
 
Date/Time
WST
Temp

°C
Wind Pressure Rain
since 9am
mm
Weather Cloud Vis
km
Sea
Height
m
Swell
Dir
 
Speed
knots
Gust
knots
hPa Trend Height
m
Period
s
Dir
23/11:30pm 19.2 W 6 8 1018.3 - 0.0 - - - - - - -
23/11:00pm 19.3 WSW 5 7 1018.3 - 0.0 - - - - - - -
23/10:30pm 20.1 WSW 7 8 1018.2 - 0.0 - - - - - - -
23/10:00pm 20.1 WSW 7 8 1018.2 - 0.0 - - - - - - -
23/09:30pm 20.9 W 7 8 1018.2 - 0.0 - - - - - - -
23/09:00pm 20.6 W 6 7 1018.0 - 0.0 - - - - - - -
23/08:30pm 20.5 W 5 6 1017.8 - 0.0 - - - - - - -
23/08:00pm 20.7 WNW 4 5 1017.5 - 0.0 - - - - - - -
23/07:30pm 21.4 NW 4 6 1017.1 - 0.0 - - - - - - -
23/07:00pm 22.3 WNW 7 10 1016.5 - 0.0 - - - - - - -
23/06:30pm 22.6 NNW 6 7 1016.1 - 0.0 - - - - - - -
23/06:00pm 25.0 N 7 9 1015.7 - 0.0 - - - - - - -
23/05:30pm 26.5 NNW 9 11 1015.4 - 0.0 - - - - - - -
23/05:00pm 27.3 NNW 12 14 1015.3 - 0.0 - - - - - - -
23/04:30pm 29.0 NNE 11 14 1015.1 - 0.0 - - - - - - -
23/04:00pm 29.6 NNE 10 14 1015.1 - 0.0 - - - - - - -
23/03:30pm 29.9 N 11 14 1015.4 - 0.0 - - - - - - -
23/03:00pm 29.6 NNE 12 15 1015.5 - 0.0 - - - - - - -
23/02:30pm 29.6 NNE 11 15 1015.8 - 0.0 - - - - - - -
23/02:00pm 29.4 NNE 12 16 1016.1 - 0.0 - - - - - - -
23/01:30pm 29.4 NNE 13 16 1016.6 - 0.0 - - - - - - -
23/01:00pm 29.7 NE 9 14 1017.0 - 0.0 - - - - - - -
23/12:30pm 29.6 NNE 7 13 1017.4 - 0.0 - - - - - - -
23/12:00pm 29.2 E 11 16 1017.9 - 0.0 - - - - - - -
23/11:30am 28.5 ESE 11 16 1018.4 - 0.0 - - - - - - -
23/11:00am 27.8 E 12 17 1018.9 - 0.0 - - - - - - -
23/10:30am 27.1 ESE 14 19 1019.3 - 0.0 - - - - - - -
23/10:00am 26.1 E 14 20 1019.5 - 0.0 - - - - - - -
23/09:30am 25.6 ESE 14 19 1019.5 - 0.0 - - - - - - -
23/09:00am 24.5 ESE 16 22 1019.4 - 0.0 - - - - - - -
23/08:30am 23.3 E 15 20 1019.4 - 0.0 - - - - - - -
23/08:00am 22.7 E 13 20 1019.0 - 0.0 - - - - - - -
23/07:30am 20.5 E 7 8 1018.9 - 0.0 - - - - - - -
23/07:00am 18.1 ENE 4 5 1018.3 - 0.0 - - - - - - -
23/06:30am 14.4 E 4 4 1017.8 - 0.0 - - - - - - -
23/06:00am 15.2 ESE 4 5 1017.1 - 0.0 - - - - - - -
23/05:30am 17.1 SE 8 10 1016.6 - 0.0 - - - - - - -
23/05:00am 17.2 SE 9 12 1016.3 - 0.0 - - - - - - -
23/04:30am 13.3 SE 6 7 1015.9 - 0.0 - - - - - - -
23/04:00am 13.5 SE 1 3 1015.6 - 0.0 - - - - - - -
23/03:30am 14.7 CALM 0 0 1015.4 - 0.0 - - - - - - -
23/03:00am 16.1 CALM 0 0 1015.1 - 0.0 - - - - - - -
23/02:30am 15.3 CALM 0 0 1015.1 - 0.0 - - - - - - -
23/02:00am 16.2 ENE 3 5 1015.0 - 0.0 - - - - - - -
23/01:30am 17.2 SE 5 5 1015.2 - 0.0 - - - - - - -
23/01:00am 16.8 SSE 7 7 1015.3 - 0.0 - - - - - - -
23/12:30am 17.7 SSE 8 9 1015.4 - 0.0 - - - - - - -
23/12:00am 20.3 S 5 6 1015.7 - 0.0 - - - - - - -
 
Date/Time
WST
Temp

°C
Wind Pressure Rain
since 9am
mm
Weather Cloud Vis
km
Sea
Height
m
Swell
Dir
 
Speed
knots
Gust
knots
hPa Trend Height
m
Period
s
Dir
22/11:30pm 20.5 SSE 7 9 1015.8 - 0.0 - - - - - - -
22/11:00pm 19.8 SSE 7 8 1015.8 - 0.0 - - - - - - -
22/10:30pm 21.1 S 6 6 1015.8 - 0.0 - - - - - - -
22/10:00pm 21.7 SSE 4 5 1015.9 - 0.0 - - - - - - -
22/09:30pm 24.1 SSW 9 11 1015.7 - 0.0 - - - - - - -
22/09:00pm 25.0 S 9 12 1015.6 - 0.0 - - - - - - -
22/08:30pm 26.0 S 10 12 1015.2 - 0.0 - - - - - - -
22/08:00pm 27.3 S 12 16 1014.7 - 0.0 - - - - - - -
22/07:30pm 26.9 SSW 9 11 1014.3 - 0.0 - - - - - - -
22/07:00pm 28.1 SSW 10 12 1013.8 - 0.0 - - - - - - -
22/06:30pm 29.1 SSW 11 14 1013.4 - 0.0 - - - - - - -
22/06:00pm 30.8 SSW 12 15 1013.0 - 0.0 - - - - - - -
22/05:30pm 32.2 SSW 10 14 1012.8 - 0.0 - - - - - - -
22/05:00pm 33.0 SSW 11 14 1012.7 - 0.0 - - - - - - -
22/04:30pm 33.7 SSW 13 18 1012.7 - 0.0 - - - - - - -
22/04:00pm 33.6 S 9 13 1012.7 - 0.0 - - - - - - -
22/03:30pm 33.6 WSW 11 14 1012.8 - 0.0 - - - - - - -
22/03:00pm 32.7 SW 10 16 1013.1 - 0.0 - - - - - - -
22/02:30pm 33.0 W 7 11 1013.3 - 0.0 - - - - - - -
22/02:00pm 32.2 SSW 8 17 1013.6 - 0.0 - - - - - - -
22/01:30pm 31.8 S 6 12 1014.0 - 0.0 - - - - - - -
22/01:00pm 31.4 S 10 15 1014.3 - 0.0 - - - - - - -
22/12:30pm 30.2 SSW 13 17 1015.0 - 0.0 - - - - - - -
22/12:00pm 29.4 S 9 14 1015.7 - 0.0 - - - - - - -
22/11:30am 29.1 SSW 15 21 1016.1 - 0.0 - - - - - - -
22/11:00am 28.4 S 15 19 1016.5 - 0.0 - - - - - - -
22/10:30am 28.0 SSW 14 19 1017.0 - 0.0 - - - - - - -
22/10:00am 26.8 S 15 21 1017.3 - 0.0 - - - - - - -
22/09:30am 25.9 SSW 14 20 1017.6 - 0.0 - - - - - - -
22/09:00am 24.6 SSW 15 19 1017.6 - 0.0 - - - - - - -
22/08:30am 24.0 S 14 19 1017.8 - 0.0 - - - - - - -
22/08:00am 22.8 S 13 17 1017.5 - 0.0 - - - - - - -
22/07:30am 21.9 S 13 17 1017.2 - 0.0 - - - - - - -
22/07:00am 21.2 S 11 17 1016.9 - 0.0 - - - - - - -
22/06:30am 19.9 SSW 10 15 1016.5 - 0.0 - - - - - - -
22/06:00am 19.8 SSW 14 18 1016.4 - 0.0 - - - - - - -
22/05:30am 20.1 SSW 16 22 1015.7 - 0.0 - - - - - - -
22/05:00am 20.1 SSW 17 23 1015.2 - 0.0 - - - - - - -
22/04:30am 20.3 SSW 15 22 1015.0 - 0.0 - - - - - - -
22/04:00am 20.7 SW 16 24 1014.9 - 0.0 - - - - - - -
22/03:30am 21.1 SW 15 24 1014.8 - 0.0 - - - - - - -
22/03:00am 21.6 SW 14 21 1014.8 - 0.0 - - - - - - -
22/02:30am 22.4 SW 15 24 1014.8 - 0.0 - - - - - - -
22/02:00am 22.8 SW 18 29 1014.7 - 0.0 - - - - - - -
22/01:49am 23.0 SW 15 27 1014.8 - 0.0 - - - - - - -
22/01:30am 23.1 SW 15 21 1014.9 - 0.0 - - - - - - -
22/01:00am 23.8 SW 19 26 1015.0 - 0.0 - - - - - - -
22/12:53am 24.0 SW 16 26 1015.0 - 0.0 - - - - - - -
22/12:30am 24.2 SW 14 19 1015.2 - 0.0 - - - - - - -
22/12:00am 24.7 SW 15 21 1015.4 - 0.0 - - - - - - -
 
Date/Time
WST
Temp

°C
Wind Pressure Rain
since 9am
mm
Weather Cloud Vis
km
Sea
Height
m
Swell
Dir
 
Speed
knots
Gust
knots
hPa Trend Height
m
Period
s
Dir
21/11:30pm 24.8 SW 13 19 1015.4 - 0.0 - - - - - - -
21/11:00pm 24.8 SW 11 17 1015.4 - 0.0 - - - - - - -
21/10:30pm 24.7 WSW 10 13 1015.3 - 0.0 - - - - - - -
21/10:00pm 25.1 WSW 12 16 1015.4 - 0.0 - - - - - - -
21/09:30pm 25.6 WSW 14 19 1015.4 - 0.0 - - - - - - -
21/09:00pm 26.0 WSW 13 17 1015.3 - 0.0 - - - - - - -
21/08:30pm 26.5 WSW 13 18 1015.1 - 0.0 - - - - - - -
21/08:00pm 27.1 WSW 13 20 1015.0 - 0.0 - - - - - - -
21/07:30pm 27.5 WSW 15 20 1014.7 - 0.0 - - - - - - -
21/07:00pm 28.0 WSW 15 22 1014.6 - 0.0 - - - - - - -
21/06:30pm 29.0 WSW 17 22 1014.2 - 0.0 - - - - - - -
21/06:00pm 29.7 W 20 25 1013.7 - 0.0 - - - - - - -
21/05:30pm 31.6 W 19 24 1013.2 - 0.0 - - - - - - -
21/05:00pm 33.3 W 21 26 1013.4 - 0.0 - - - - - - -
21/04:30pm 34.5 W 18 23 1013.3 - 0.0 - - - - - - -
21/04:00pm 35.5 W 20 27 1013.2 - 0.0 - - - - - - -
21/03:30pm 36.0 W 20 26 1013.2 - 0.0 - - - - - - -
21/03:00pm 36.1 W 19 28 1013.1 - 0.0 - - - - - - -
21/02:30pm 36.7 W 19 27 1013.2 - 0.0 - - - - - - -
21/02:00pm 36.5 W 17 30 1013.4 - 0.0 - - - - - - -
21/01:30pm 37.2 W 15 26 1013.9 - 0.0 - - - - - - -
21/01:21pm 37.0 WNW 16 26 1014.0 - 0.0 - - - - - - -
21/01:00pm 36.4 W 14 21 1014.4 - 0.0 - - - - - - -
21/12:30pm 36.3 W 15 22 1014.8 - 0.0 - - - - - - -
21/12:00pm 36.1 WSW 13 21 1015.5 - 0.0 - - - - - - -
21/11:30am 34.8 W 14 19 1016.1 - 0.0 - - - - - - -
21/11:00am 34.6 WSW 14 20 1016.6 - 0.0 - - - - - - -
21/10:30am 33.2 WSW 15 19 1017.0 - 0.0 - - - - - - -
21/10:00am 32.5 WSW 15 22 1017.3 - 0.0 - - - - - - -
21/09:30am 31.6 SW 13 19 1017.4 - 0.0 - - - - - - -
21/09:00am 30.3 SW 13 17 1017.4 - 0.0 - - - - - - -
21/08:30am 29.1 SW 12 15 1017.3 - 0.0 - - - - - - -
21/08:00am 27.3 SW 11 15 1017.2 - 0.0 - - - - - - -
21/07:30am 25.6 SW 10 14 1017.0 - 0.0 - - - - - - -
21/07:00am 24.1 SW 8 11 1016.3 - 0.0 - - - - - - -
21/06:30am 23.0 SW 9 12 1015.7 - 0.0 - - - - - - -

Other Formats:

Comma delimited format used in spreadsheet applications
http://www.bom.gov.au/fwo/IDW60701/IDW60701.94308.axf

JavaScript Object Notation format (JSON) in row-major order
http://www.bom.gov.au/fwo/IDW60701/IDW60701.94308.json